sensor_id;sensor_type;location;lat;lon;timestamp;P1;durP1;ratioP1;P2;durP2;ratioP2
17598;SDS011;8918;52.092;5.232;2022-08-21T00:00:52;10.05;;;6.60;;
17598;SDS011;8918;52.092;5.232;2022-08-21T00:03:18;8.13;;;6.00;;
17598;SDS011;8918;52.092;5.232;2022-08-21T00:05:45;11.25;;;6.40;;
17598;SDS011;8918;52.092;5.232;2022-08-21T00:08:15;9.35;;;6.30;;
17598;SDS011;8918;52.092;5.232;2022-08-21T00:10:42;7.95;;;6.10;;
17598;SDS011;8918;52.092;5.232;2022-08-21T00:13:08;8.38;;;5.95;;
17598;SDS011;8918;52.092;5.232;2022-08-21T00:15:35;9.25;;;5.68;;
17598;SDS011;8918;52.092;5.232;2022-08-21T00:18:03;8.77;;;5.80;;
17598;SDS011;8918;52.092;5.232;2022-08-21T00:20:29;9.60;;;6.22;;
17598;SDS011;8918;52.092;5.232;2022-08-21T00:22:55;6.82;;;5.35;;
17598;SDS011;8918;52.092;5.232;2022-08-21T00:25:20;7.70;;;5.40;;
17598;SDS011;8918;52.092;5.232;2022-08-21T00:27:46;7.07;;;5.82;;
17598;SDS011;8918;52.092;5.232;2022-08-21T00:30:20;9.15;;;6.13;;
17598;SDS011;8918;52.092;5.232;2022-08-21T00:32:47;8.38;;;6.05;;
17598;SDS011;8918;52.092;5.232;2022-08-21T00:35:14;7.88;;;5.78;;
17598;SDS011;8918;52.092;5.232;2022-08-21T00:37:42;8.23;;;6.22;;
17598;SDS011;8918;52.092;5.232;2022-08-21T00:40:11;9.55;;;6.13;;
17598;SDS011;8918;52.092;5.232;2022-08-21T00:42:39;9.43;;;6.55;;
17598;SDS011;8918;52.092;5.232;2022-08-21T00:45:05;8.15;;;6.03;;
17598;SDS011;8918;52.092;5.232;2022-08-21T00:47:31;7.00;;;5.78;;
17598;SDS011;8918;52.092;5.232;2022-08-21T00:49:57;10.15;;;6.45;;
17598;SDS011;8918;52.092;5.232;2022-08-21T00:52:26;9.20;;;6.13;;
17598;SDS011;8918;52.092;5.232;2022-08-21T00:54:55;8.93;;;6.40;;
17598;SDS011;8918;52.092;5.232;2022-08-21T00:57:26;8.52;;;6.30;;
17598;SDS011;8918;52.092;5.232;2022-08-21T00:59:56;7.53;;;6.18;;
17598;SDS011;8918;52.092;5.232;2022-08-21T01:02:24;9.93;;;6.45;;
17598;SDS011;8918;52.092;5.232;2022-08-21T01:04:50;7.55;;;6.05;;
17598;SDS011;8918;52.092;5.232;2022-08-21T01:07:16;8.82;;;6.70;;
17598;SDS011;8918;52.092;5.232;2022-08-21T01:09:43;8.02;;;6.47;;
17598;SDS011;8918;52.092;5.232;2022-08-21T01:12:11;9.93;;;6.13;;
17598;SDS011;8918;52.092;5.232;2022-08-21T01:14:37;9.63;;;6.68;;
17598;SDS011;8918;52.092;5.232;2022-08-21T01:17:04;10.95;;;6.88;;
17598;SDS011;8918;52.092;5.232;2022-08-21T01:19:30;10.75;;;6.53;;
17598;SDS011;8918;52.092;5.232;2022-08-21T01:21:56;7.82;;;6.03;;
17598;SDS011;8918;52.092;5.232;2022-08-21T01:24:22;11.55;;;6.35;;
17598;SDS011;8918;52.092;5.232;2022-08-21T01:26:48;10.18;;;6.18;;
17598;SDS011;8918;52.092;5.232;2022-08-21T01:29:16;8.98;;;6.13;;
17598;SDS011;8918;52.092;5.232;2022-08-21T01:31:48;7.78;;;6.20;;
17598;SDS011;8918;52.092;5.232;2022-08-21T01:34:14;7.85;;;6.22;;
17598;SDS011;8918;52.092;5.232;2022-08-21T01:36:40;10.27;;;6.20;;
17598;SDS011;8918;52.092;5.232;2022-08-21T01:39:07;10.80;;;6.45;;
17598;SDS011;8918;52.092;5.232;2022-08-21T01:41:34;7.32;;;6.03;;
17598;SDS011;8918;52.092;5.232;2022-08-21T01:43:59;9.27;;;6.22;;
17598;SDS011;8918;52.092;5.232;2022-08-21T01:46:25;9.25;;;6.07;;
17598;SDS011;8918;52.092;5.232;2022-08-21T01:48:51;9.20;;;6.50;;
17598;SDS011;8918;52.092;5.232;2022-08-21T01:51:17;11.30;;;6.75;;
17598;SDS011;8918;52.092;5.232;2022-08-21T01:53:42;8.15;;;6.32;;
17598;SDS011;8918;52.092;5.232;2022-08-21T01:56:10;8.75;;;6.40;;
17598;SDS011;8918;52.092;5.232;2022-08-21T01:58:41;10.07;;;6.60;;
17598;SDS011;8918;52.092;5.232;2022-08-21T02:01:08;10.45;;;7.40;;
17598;SDS011;8918;52.092;5.232;2022-08-21T02:03:34;8.18;;;6.47;;
17598;SDS011;8918;52.092;5.232;2022-08-21T02:06:00;14.98;;;7.03;;
17598;SDS011;8918;52.092;5.232;2022-08-21T02:08:27;7.88;;;6.80;;
17598;SDS011;8918;52.092;5.232;2022-08-21T02:10:53;9.32;;;6.35;;
17598;SDS011;8918;52.092;5.232;2022-08-21T02:13:19;10.52;;;7.20;;
17598;SDS011;8918;52.092;5.232;2022-08-21T02:15:45;9.55;;;7.05;;
17598;SDS011;8918;52.092;5.232;2022-08-21T02:18:10;10.40;;;6.72;;
17598;SDS011;8918;52.092;5.232;2022-08-21T02:20:37;11.20;;;6.85;;
17598;SDS011;8918;52.092;5.232;2022-08-21T02:23:06;9.27;;;6.50;;
17598;SDS011;8918;52.092;5.232;2022-08-21T02:25:34;10.25;;;6.85;;
17598;SDS011;8918;52.092;5.232;2022-08-21T02:28:01;8.40;;;6.03;;
17598;SDS011;8918;52.092;5.232;2022-08-21T02:30:34;10.10;;;6.50;;
17598;SDS011;8918;52.092;5.232;2022-08-21T02:33:02;10.23;;;7.05;;
17598;SDS011;8918;52.092;5.232;2022-08-21T02:35:28;10.60;;;7.25;;
17598;SDS011;8918;52.092;5.232;2022-08-21T02:38:02;9.07;;;7.63;;
17598;SDS011;8918;52.092;5.232;2022-08-21T02:40:31;10.40;;;7.38;;
17598;SDS011;8918;52.092;5.232;2022-08-21T02:42:58;9.45;;;6.88;;
17598;SDS011;8918;52.092;5.232;2022-08-21T02:45:25;12.35;;;7.28;;
17598;SDS011;8918;52.092;5.232;2022-08-21T02:47:54;10.10;;;6.63;;
17598;SDS011;8918;52.092;5.232;2022-08-21T02:50:29;12.57;;;7.88;;
17598;SDS011;8918;52.092;5.232;2022-08-21T02:52:56;12.65;;;7.15;;
17598;SDS011;8918;52.092;5.232;2022-08-21T02:55:23;8.27;;;7.10;;
17598;SDS011;8918;52.092;5.232;2022-08-21T02:57:51;10.23;;;6.90;;
17598;SDS011;8918;52.092;5.232;2022-08-21T03:00:18;8.65;;;6.50;;
17598;SDS011;8918;52.092;5.232;2022-08-21T03:02:45;8.95;;;6.88;;
17598;SDS011;8918;52.092;5.232;2022-08-21T03:05:11;9.93;;;7.20;;
17598;SDS011;8918;52.092;5.232;2022-08-21T03:07:37;9.63;;;6.63;;
17598;SDS011;8918;52.092;5.232;2022-08-21T03:10:04;10.10;;;7.30;;
17598;SDS011;8918;52.092;5.232;2022-08-21T03:12:31;9.65;;;6.45;;
17598;SDS011;8918;52.092;5.232;2022-08-21T03:14:56;8.93;;;6.82;;
17598;SDS011;8918;52.092;5.232;2022-08-21T03:17:23;11.25;;;7.60;;
17598;SDS011;8918;52.092;5.232;2022-08-21T03:19:50;11.07;;;7.30;;
17598;SDS011;8918;52.092;5.232;2022-08-21T03:22:15;9.82;;;7.25;;
17598;SDS011;8918;52.092;5.232;2022-08-21T03:24:41;10.82;;;7.47;;
17598;SDS011;8918;52.092;5.232;2022-08-21T03:27:06;11.80;;;7.53;;
17598;SDS011;8918;52.092;5.232;2022-08-21T03:29:32;9.02;;;6.93;;
17598;SDS011;8918;52.092;5.232;2022-08-21T03:31:57;9.20;;;6.82;;
17598;SDS011;8918;52.092;5.232;2022-08-21T03:34:23;8.52;;;6.57;;
17598;SDS011;8918;52.092;5.232;2022-08-21T03:36:48;10.57;;;6.95;;
17598;SDS011;8918;52.092;5.232;2022-08-21T03:39:15;9.65;;;7.40;;
17598;SDS011;8918;52.092;5.232;2022-08-21T03:41:41;10.07;;;7.18;;
17598;SDS011;8918;52.092;5.232;2022-08-21T03:44:07;9.50;;;7.50;;
17598;SDS011;8918;52.092;5.232;2022-08-21T03:46:33;9.40;;;7.03;;
17598;SDS011;8918;52.092;5.232;2022-08-21T03:48:58;12.43;;;7.20;;
17598;SDS011;8918;52.092;5.232;2022-08-21T03:51:24;11.40;;;7.43;;
17598;SDS011;8918;52.092;5.232;2022-08-21T03:53:50;10.65;;;7.68;;
17598;SDS011;8918;52.092;5.232;2022-08-21T03:56:15;10.32;;;6.75;;
17598;SDS011;8918;52.092;5.232;2022-08-21T03:58:41;10.65;;;7.10;;
17598;SDS011;8918;52.092;5.232;2022-08-21T04:01:07;9.40;;;7.03;;
17598;SDS011;8918;52.092;5.232;2022-08-21T04:03:34;10.35;;;7.18;;
17598;SDS011;8918;52.092;5.232;2022-08-21T04:06:00;10.85;;;7.38;;
17598;SDS011;8918;52.092;5.232;2022-08-21T04:08:26;8.32;;;7.10;;
17598;SDS011;8918;52.092;5.232;2022-08-21T04:10:53;7.40;;;6.38;;
17598;SDS011;8918;52.092;5.232;2022-08-21T04:13:21;8.65;;;6.18;;
17598;SDS011;8918;52.092;5.232;2022-08-21T04:15:48;9.25;;;6.90;;
17598;SDS011;8918;52.092;5.232;2022-08-21T04:18:14;10.25;;;6.82;;
17598;SDS011;8918;52.092;5.232;2022-08-21T04:20:40;8.68;;;6.10;;
17598;SDS011;8918;52.092;5.232;2022-08-21T04:23:08;9.13;;;6.53;;
17598;SDS011;8918;52.092;5.232;2022-08-21T04:25:34;10.25;;;6.50;;
17598;SDS011;8918;52.092;5.232;2022-08-21T04:28:00;8.33;;;6.60;;
17598;SDS011;8918;52.092;5.232;2022-08-21T04:30:27;10.80;;;7.38;;
17598;SDS011;8918;52.092;5.232;2022-08-21T04:32:52;10.43;;;6.97;;
17598;SDS011;8918;52.092;5.232;2022-08-21T04:35:18;12.07;;;7.20;;
17598;SDS011;8918;52.092;5.232;2022-08-21T04:37:46;11.87;;;7.70;;
17598;SDS011;8918;52.092;5.232;2022-08-21T04:40:13;10.57;;;7.60;;
17598;SDS011;8918;52.092;5.232;2022-08-21T04:42:44;11.10;;;7.70;;
17598;SDS011;8918;52.092;5.232;2022-08-21T04:48:14;11.37;;;7.77;;
17598;SDS011;8918;52.092;5.232;2022-08-21T04:56:24;10.17;;;7.07;;
17598;SDS011;8918;52.092;5.232;2022-08-21T04:58:53;10.73;;;8.00;;
17598;SDS011;8918;52.092;5.232;2022-08-21T05:01:22;12.87;;;8.40;;
17598;SDS011;8918;52.092;5.232;2022-08-21T05:03:50;11.77;;;7.90;;
17598;SDS011;8918;52.092;5.232;2022-08-21T05:06:20;12.00;;;8.10;;
17598;SDS011;8918;52.092;5.232;2022-08-21T05:08:46;12.57;;;8.20;;
17598;SDS011;8918;52.092;5.232;2022-08-21T05:11:13;12.23;;;8.03;;
17598;SDS011;8918;52.092;5.232;2022-08-21T05:13:39;13.37;;;7.80;;
17598;SDS011;8918;52.092;5.232;2022-08-21T05:16:07;14.50;;;8.20;;
17598;SDS011;8918;52.092;5.232;2022-08-21T05:18:33;12.80;;;8.10;;
17598;SDS011;8918;52.092;5.232;2022-08-21T05:20:59;13.75;;;7.13;;
17598;SDS011;8918;52.092;5.232;2022-08-21T05:23:25;11.73;;;8.15;;
17598;SDS011;8918;52.092;5.232;2022-08-21T05:25:51;11.93;;;8.00;;
17598;SDS011;8918;52.092;5.232;2022-08-21T05:28:18;12.90;;;8.50;;
17598;SDS011;8918;52.092;5.232;2022-08-21T05:30:44;12.50;;;7.85;;
17598;SDS011;8918;52.092;5.232;2022-08-21T05:33:10;10.80;;;7.82;;
17598;SDS011;8918;52.092;5.232;2022-08-21T05:35:36;13.07;;;8.32;;
17598;SDS011;8918;52.092;5.232;2022-08-21T05:38:03;14.35;;;8.20;;
17598;SDS011;8918;52.092;5.232;2022-08-21T05:40:30;12.50;;;8.00;;
17598;SDS011;8918;52.092;5.232;2022-08-21T05:42:56;11.17;;;7.83;;
17598;SDS011;8918;52.092;5.232;2022-08-21T05:45:24;12.93;;;8.02;;
17598;SDS011;8918;52.092;5.232;2022-08-21T05:47:51;10.10;;;8.13;;
17598;SDS011;8918;52.092;5.232;2022-08-21T05:50:17;15.88;;;8.65;;
17598;SDS011;8918;52.092;5.232;2022-08-21T05:52:43;15.57;;;9.00;;
17598;SDS011;8918;52.092;5.232;2022-08-21T05:55:08;16.92;;;7.95;;
17598;SDS011;8918;52.092;5.232;2022-08-21T05:57:34;11.45;;;7.85;;
17598;SDS011;8918;52.092;5.232;2022-08-21T05:59:59;15.65;;;8.65;;
17598;SDS011;8918;52.092;5.232;2022-08-21T06:02:25;12.80;;;8.20;;
17598;SDS011;8918;52.092;5.232;2022-08-21T06:04:50;14.50;;;8.13;;
17598;SDS011;8918;52.092;5.232;2022-08-21T06:07:16;13.20;;;8.52;;
17598;SDS011;8918;52.092;5.232;2022-08-21T06:09:42;12.80;;;7.88;;
17598;SDS011;8918;52.092;5.232;2022-08-21T06:12:08;10.45;;;7.88;;
17598;SDS011;8918;52.092;5.232;2022-08-21T06:14:37;13.05;;;8.15;;
17598;SDS011;8918;52.092;5.232;2022-08-21T06:17:04;15.00;;;8.40;;
17598;SDS011;8918;52.092;5.232;2022-08-21T06:19:34;14.02;;;8.45;;
17598;SDS011;8918;52.092;5.232;2022-08-21T06:22:00;13.00;;;8.00;;
17598;SDS011;8918;52.092;5.232;2022-08-21T06:24:26;15.68;;;7.88;;
17598;SDS011;8918;52.092;5.232;2022-08-21T06:26:52;14.75;;;8.20;;
17598;SDS011;8918;52.092;5.232;2022-08-21T06:29:18;14.77;;;8.00;;
17598;SDS011;8918;52.092;5.232;2022-08-21T06:31:45;14.48;;;8.05;;
17598;SDS011;8918;52.092;5.232;2022-08-21T06:34:12;15.25;;;7.47;;
17598;SDS011;8918;52.092;5.232;2022-08-21T06:36:38;12.10;;;7.45;;
17598;SDS011;8918;52.092;5.232;2022-08-21T06:39:03;14.50;;;7.70;;
17598;SDS011;8918;52.092;5.232;2022-08-21T06:41:29;15.35;;;7.50;;
17598;SDS011;8918;52.092;5.232;2022-08-21T06:43:55;12.63;;;7.57;;
17598;SDS011;8918;52.092;5.232;2022-08-21T06:46:21;12.60;;;7.80;;
17598;SDS011;8918;52.092;5.232;2022-08-21T06:48:48;10.75;;;6.88;;
17598;SDS011;8918;52.092;5.232;2022-08-21T06:51:14;16.23;;;7.60;;
17598;SDS011;8918;52.092;5.232;2022-08-21T06:53:39;16.52;;;7.43;;
17598;SDS011;8918;52.092;5.232;2022-08-21T06:56:05;14.45;;;6.45;;
17598;SDS011;8918;52.092;5.232;2022-08-21T06:58:31;12.98;;;7.13;;
17598;SDS011;8918;52.092;5.232;2022-08-21T07:00:57;15.90;;;6.82;;
17598;SDS011;8918;52.092;5.232;2022-08-21T07:03:27;13.57;;;6.47;;
17598;SDS011;8918;52.092;5.232;2022-08-21T07:05:55;12.70;;;7.07;;
17598;SDS011;8918;52.092;5.232;2022-08-21T07:08:21;16.83;;;7.53;;
17598;SDS011;8918;52.092;5.232;2022-08-21T07:10:47;13.68;;;6.13;;
17598;SDS011;8918;52.092;5.232;2022-08-21T07:13:14;16.08;;;6.70;;
17598;SDS011;8918;52.092;5.232;2022-08-21T07:15:39;12.75;;;6.88;;
17598;SDS011;8918;52.092;5.232;2022-08-21T07:18:05;16.67;;;6.72;;
17598;SDS011;8918;52.092;5.232;2022-08-21T07:20:32;14.25;;;6.78;;
17598;SDS011;8918;52.092;5.232;2022-08-21T07:22:59;12.43;;;6.07;;
17598;SDS011;8918;52.092;5.232;2022-08-21T07:25:26;10.27;;;6.05;;
17598;SDS011;8918;52.092;5.232;2022-08-21T07:27:52;13.75;;;7.00;;
17598;SDS011;8918;52.092;5.232;2022-08-21T07:30:17;13.00;;;6.63;;
17598;SDS011;8918;52.092;5.232;2022-08-21T07:32:43;12.52;;;6.25;;
17598;SDS011;8918;52.092;5.232;2022-08-21T07:35:09;13.77;;;6.55;;
17598;SDS011;8918;52.092;5.232;2022-08-21T07:37:34;11.23;;;6.07;;
17598;SDS011;8918;52.092;5.232;2022-08-21T07:40:00;14.32;;;6.85;;
17598;SDS011;8918;52.092;5.232;2022-08-21T07:42:25;15.15;;;6.50;;
17598;SDS011;8918;52.092;5.232;2022-08-21T07:44:51;17.42;;;6.60;;
17598;SDS011;8918;52.092;5.232;2022-08-21T07:47:17;14.30;;;6.85;;
17598;SDS011;8918;52.092;5.232;2022-08-21T07:49:42;14.65;;;6.70;;
17598;SDS011;8918;52.092;5.232;2022-08-21T07:52:08;11.88;;;6.07;;
17598;SDS011;8918;52.092;5.232;2022-08-21T07:54:33;15.27;;;6.63;;
17598;SDS011;8918;52.092;5.232;2022-08-21T07:56:59;14.57;;;6.78;;
17598;SDS011;8918;52.092;5.232;2022-08-21T07:59:24;14.32;;;6.05;;
17598;SDS011;8918;52.092;5.232;2022-08-21T08:01:50;13.18;;;5.82;;
17598;SDS011;8918;52.092;5.232;2022-08-21T08:04:16;14.10;;;6.15;;
17598;SDS011;8918;52.092;5.232;2022-08-21T08:06:41;18.45;;;6.70;;
17598;SDS011;8918;52.092;5.232;2022-08-21T08:09:07;13.93;;;6.40;;
17598;SDS011;8918;52.092;5.232;2022-08-21T08:11:32;15.40;;;6.85;;
17598;SDS011;8918;52.092;5.232;2022-08-21T08:13:58;11.90;;;6.30;;
17598;SDS011;8918;52.092;5.232;2022-08-21T08:16:24;13.05;;;6.32;;
17598;SDS011;8918;52.092;5.232;2022-08-21T08:18:50;15.50;;;6.60;;
17598;SDS011;8918;52.092;5.232;2022-08-21T08:21:16;13.33;;;7.10;;
17598;SDS011;8918;52.092;5.232;2022-08-21T08:23:45;11.93;;;6.15;;
17598;SDS011;8918;52.092;5.232;2022-08-21T08:26:11;13.32;;;6.65;;
17598;SDS011;8918;52.092;5.232;2022-08-21T08:28:37;11.82;;;6.57;;
17598;SDS011;8918;52.092;5.232;2022-08-21T08:31:02;12.05;;;5.68;;
17598;SDS011;8918;52.092;5.232;2022-08-21T08:33:28;13.80;;;6.00;;
17598;SDS011;8918;52.092;5.232;2022-08-21T08:35:55;12.30;;;6.32;;
17598;SDS011;8918;52.092;5.232;2022-08-21T08:38:21;13.48;;;6.10;;
17598;SDS011;8918;52.092;5.232;2022-08-21T08:43:31;11.77;;;5.68;;
17598;SDS011;8918;52.092;5.232;2022-08-21T08:45:59;12.50;;;6.22;;
17598;SDS011;8918;52.092;5.232;2022-08-21T08:48:45;15.40;;;6.03;;
17598;SDS011;8918;52.092;5.232;2022-08-21T08:51:25;14.52;;;6.07;;
17598;SDS011;8918;52.092;5.232;2022-08-21T08:54:00;14.20;;;6.00;;
17598;SDS011;8918;52.092;5.232;2022-08-21T08:56:30;11.27;;;6.10;;
17598;SDS011;8918;52.092;5.232;2022-08-21T08:59:00;11.48;;;5.20;;
17598;SDS011;8918;52.092;5.232;2022-08-21T09:01:32;12.30;;;5.22;;
17598;SDS011;8918;52.092;5.232;2022-08-21T09:03:59;13.23;;;5.22;;
17598;SDS011;8918;52.092;5.232;2022-08-21T09:06:31;12.90;;;5.18;;
17598;SDS011;8918;52.092;5.232;2022-08-21T09:09:24;7.80;;;4.75;;
17598;SDS011;8918;52.092;5.232;2022-08-21T09:25:46;10.45;;;5.32;;
17598;SDS011;8918;52.092;5.232;2022-08-21T09:28:33;11.55;;;4.53;;
17598;SDS011;8918;52.092;5.232;2022-08-21T09:31:00;11.48;;;4.32;;
17598;SDS011;8918;52.092;5.232;2022-08-21T09:33:28;12.40;;;4.88;;
17598;SDS011;8918;52.092;5.232;2022-08-21T09:35:54;11.23;;;4.10;;
17598;SDS011;8918;52.092;5.232;2022-08-21T09:38:27;9.30;;;4.05;;
17598;SDS011;8918;52.092;5.232;2022-08-21T09:41:00;9.07;;;4.10;;
17598;SDS011;8918;52.092;5.232;2022-08-21T09:43:28;9.15;;;4.28;;
17598;SDS011;8918;52.092;5.232;2022-08-21T09:48:38;10.77;;;4.18;;
17598;SDS011;8918;52.092;5.232;2022-08-21T09:51:07;8.98;;;4.00;;
17598;SDS011;8918;52.092;5.232;2022-08-21T09:53:37;10.32;;;4.25;;
17598;SDS011;8918;52.092;5.232;2022-08-21T09:56:16;9.85;;;3.92;;
17598;SDS011;8918;52.092;5.232;2022-08-21T09:59:12;9.73;;;3.80;;
17598;SDS011;8918;52.092;5.232;2022-08-21T10:01:47;11.30;;;3.67;;
17598;SDS011;8918;52.092;5.232;2022-08-21T10:04:14;10.80;;;3.85;;
17598;SDS011;8918;52.092;5.232;2022-08-21T10:06:44;9.18;;;3.33;;
17598;SDS011;8918;52.092;5.232;2022-08-21T10:09:11;7.22;;;3.03;;
17598;SDS011;8918;52.092;5.232;2022-08-21T10:11:39;9.07;;;3.30;;
17598;SDS011;8918;52.092;5.232;2022-08-21T10:14:20;7.72;;;3.50;;
17598;SDS011;8918;52.092;5.232;2022-08-21T10:17:30;9.57;;;3.38;;
17598;SDS011;8918;52.092;5.232;2022-08-21T10:20:17;8.00;;;2.65;;
17598;SDS011;8918;52.092;5.232;2022-08-21T10:25:41;9.75;;;3.33;;
17598;SDS011;8918;52.092;5.232;2022-08-21T10:28:26;6.43;;;2.83;;
17598;SDS011;8918;52.092;5.232;2022-08-21T10:30:56;8.82;;;2.92;;
17598;SDS011;8918;52.092;5.232;2022-08-21T10:39:54;8.38;;;2.78;;
17598;SDS011;8918;52.092;5.232;2022-08-21T10:46:27;8.55;;;2.60;;
17598;SDS011;8918;52.092;5.232;2022-08-21T10:49:13;6.70;;;2.60;;
17598;SDS011;8918;52.092;5.232;2022-08-21T10:57:05;7.22;;;2.70;;
17598;SDS011;8918;52.092;5.232;2022-08-21T10:59:57;6.65;;;2.60;;
17598;SDS011;8918;52.092;5.232;2022-08-21T11:02:31;7.05;;;2.30;;
17598;SDS011;8918;52.092;5.232;2022-08-21T11:05:07;5.18;;;2.50;;
17598;SDS011;8918;52.092;5.232;2022-08-21T11:07:45;6.45;;;2.30;;
17598;SDS011;8918;52.092;5.232;2022-08-21T11:10:26;8.77;;;2.47;;
17598;SDS011;8918;52.092;5.232;2022-08-21T11:12:58;5.80;;;2.53;;
17598;SDS011;8918;52.092;5.232;2022-08-21T11:20:41;5.72;;;2.22;;
17598;SDS011;8918;52.092;5.232;2022-08-21T11:26:19;7.78;;;2.72;;
17598;SDS011;8918;52.092;5.232;2022-08-21T11:29:36;6.20;;;2.85;;
17598;SDS011;8918;52.092;5.232;2022-08-21T11:34:38;5.68;;;2.55;;
17598;SDS011;8918;52.092;5.232;2022-08-21T11:37:33;5.80;;;3.10;;
17598;SDS011;8918;52.092;5.232;2022-08-21T11:45:42;6.43;;;3.10;;
17598;SDS011;8918;52.092;5.232;2022-08-21T11:50:51;7.50;;;3.00;;
17598;SDS011;8918;52.092;5.232;2022-08-21T11:55:55;7.32;;;2.92;;
17598;SDS011;8918;52.092;5.232;2022-08-21T11:58:39;6.88;;;2.92;;
17598;SDS011;8918;52.092;5.232;2022-08-21T12:01:12;8.05;;;3.13;;
17598;SDS011;8918;52.092;5.232;2022-08-21T12:03:54;6.88;;;2.60;;
17598;SDS011;8918;52.092;5.232;2022-08-21T12:06:33;6.20;;;2.55;;
17598;SDS011;8918;52.092;5.232;2022-08-21T12:09:30;8.18;;;2.78;;
17598;SDS011;8918;52.092;5.232;2022-08-21T12:14:44;5.82;;;2.42;;
17598;SDS011;8918;52.092;5.232;2022-08-21T12:17:21;6.55;;;2.85;;
17598;SDS011;8918;52.092;5.232;2022-08-21T12:22:47;6.22;;;2.25;;
17598;SDS011;8918;52.092;5.232;2022-08-21T12:25:35;5.13;;;2.17;;
17598;SDS011;8918;52.092;5.232;2022-08-21T12:28:08;5.07;;;2.60;;
17598;SDS011;8918;52.092;5.232;2022-08-21T12:30:38;4.43;;;2.67;;
17598;SDS011;8918;52.092;5.232;2022-08-21T12:35:46;7.15;;;2.30;;
17598;SDS011;8918;52.092;5.232;2022-08-21T12:40:55;6.20;;;2.42;;
17598;SDS011;8918;52.092;5.232;2022-08-21T12:43:34;6.10;;;2.63;;
17598;SDS011;8918;52.092;5.232;2022-08-21T12:46:03;6.50;;;2.75;;
17598;SDS011;8918;52.092;5.232;2022-08-21T12:48:41;4.35;;;2.30;;
17598;SDS011;8918;52.092;5.232;2022-08-21T12:51:14;4.88;;;2.42;;
17598;SDS011;8918;52.092;5.232;2022-08-21T12:53:44;5.63;;;2.20;;
17598;SDS011;8918;52.092;5.232;2022-08-21T12:56:14;6.97;;;2.63;;
17598;SDS011;8918;52.092;5.232;2022-08-21T12:58:45;7.53;;;2.50;;
17598;SDS011;8918;52.092;5.232;2022-08-21T13:03:44;5.78;;;2.45;;
17598;SDS011;8918;52.092;5.232;2022-08-21T13:06:15;6.00;;;2.50;;
17598;SDS011;8918;52.092;5.232;2022-08-21T13:08:43;8.10;;;2.30;;
17598;SDS011;8918;52.092;5.232;2022-08-21T13:11:10;6.45;;;2.63;;
17598;SDS011;8918;52.092;5.232;2022-08-21T13:13:39;7.68;;;2.95;;
17598;SDS011;8918;52.092;5.232;2022-08-21T13:16:05;6.60;;;2.58;;
17598;SDS011;8918;52.092;5.232;2022-08-21T13:18:33;7.22;;;2.70;;
17598;SDS011;8918;52.092;5.232;2022-08-21T13:21:05;6.97;;;2.60;;
17598;SDS011;8918;52.092;5.232;2022-08-21T13:23:36;6.47;;;2.65;;
17598;SDS011;8918;52.092;5.232;2022-08-21T13:26:11;8.65;;;2.55;;
17598;SDS011;8918;52.092;5.232;2022-08-21T13:28:38;6.55;;;2.25;;
17598;SDS011;8918;52.092;5.232;2022-08-21T13:31:06;4.30;;;2.20;;
17598;SDS011;8918;52.092;5.232;2022-08-21T13:33:35;6.90;;;2.33;;
17598;SDS011;8918;52.092;5.232;2022-08-21T13:36:04;4.53;;;2.22;;
17598;SDS011;8918;52.092;5.232;2022-08-21T13:38:36;4.70;;;2.30;;
17598;SDS011;8918;52.092;5.232;2022-08-21T13:41:08;6.95;;;2.60;;
17598;SDS011;8918;52.092;5.232;2022-08-21T13:43:35;5.75;;;2.58;;
17598;SDS011;8918;52.092;5.232;2022-08-21T13:46:02;5.45;;;2.30;;
17598;SDS011;8918;52.092;5.232;2022-08-21T13:48:34;6.10;;;2.95;;
17598;SDS011;8918;52.092;5.232;2022-08-21T13:51:01;6.47;;;2.60;;
17598;SDS011;8918;52.092;5.232;2022-08-21T13:53:44;4.97;;;2.55;;
17598;SDS011;8918;52.092;5.232;2022-08-21T13:56:23;6.22;;;2.63;;
17598;SDS011;8918;52.092;5.232;2022-08-21T13:58:52;5.13;;;2.53;;
17598;SDS011;8918;52.092;5.232;2022-08-21T14:01:23;7.53;;;2.38;;
17598;SDS011;8918;52.092;5.232;2022-08-21T14:03:59;5.95;;;2.40;;
17598;SDS011;8918;52.092;5.232;2022-08-21T14:06:41;6.65;;;2.40;;
17598;SDS011;8918;52.092;5.232;2022-08-21T14:09:08;5.15;;;2.38;;
17598;SDS011;8918;52.092;5.232;2022-08-21T14:11:45;4.20;;;2.17;;
17598;SDS011;8918;52.092;5.232;2022-08-21T14:14:22;4.95;;;2.40;;
17598;SDS011;8918;52.092;5.232;2022-08-21T14:16:58;6.30;;;2.30;;
17598;SDS011;8918;52.092;5.232;2022-08-21T14:19:36;7.05;;;2.08;;
17598;SDS011;8918;52.092;5.232;2022-08-21T14:28:08;7.13;;;2.38;;
17598;SDS011;8918;52.092;5.232;2022-08-21T14:30:40;4.13;;;2.08;;
17598;SDS011;8918;52.092;5.232;2022-08-21T14:33:11;4.28;;;2.10;;
17598;SDS011;8918;52.092;5.232;2022-08-21T14:35:43;5.00;;;2.10;;
17598;SDS011;8918;52.092;5.232;2022-08-21T14:38:18;4.15;;;2.17;;
17598;SDS011;8918;52.092;5.232;2022-08-21T14:40:50;6.55;;;2.33;;
17598;SDS011;8918;52.092;5.232;2022-08-21T14:43:17;6.82;;;2.20;;
17598;SDS011;8918;52.092;5.232;2022-08-21T14:45:44;4.63;;;2.00;;
17598;SDS011;8918;52.092;5.232;2022-08-21T14:48:10;6.15;;;2.25;;
17598;SDS011;8918;52.092;5.232;2022-08-21T14:50:36;5.43;;;2.10;;
17598;SDS011;8918;52.092;5.232;2022-08-21T14:53:02;5.38;;;2.28;;
17598;SDS011;8918;52.092;5.232;2022-08-21T14:55:29;6.65;;;2.33;;
17598;SDS011;8918;52.092;5.232;2022-08-21T14:58:15;6.03;;;2.28;;
17598;SDS011;8918;52.092;5.232;2022-08-21T15:00:41;5.03;;;2.20;;
17598;SDS011;8918;52.092;5.232;2022-08-21T15:03:07;5.75;;;2.40;;
17598;SDS011;8918;52.092;5.232;2022-08-21T15:05:32;5.75;;;2.28;;
17598;SDS011;8918;52.092;5.232;2022-08-21T15:07:58;4.50;;;2.25;;
17598;SDS011;8918;52.092;5.232;2022-08-21T15:10:23;4.30;;;2.20;;
17598;SDS011;8918;52.092;5.232;2022-08-21T15:12:49;4.10;;;2.00;;
17598;SDS011;8918;52.092;5.232;2022-08-21T15:15:14;4.90;;;2.05;;
17598;SDS011;8918;52.092;5.232;2022-08-21T15:17:40;6.45;;;2.10;;
17598;SDS011;8918;52.092;5.232;2022-08-21T15:20:05;7.57;;;2.10;;
17598;SDS011;8918;52.092;5.232;2022-08-21T15:22:34;7.60;;;2.00;;
17598;SDS011;8918;52.092;5.232;2022-08-21T15:25:00;4.20;;;2.10;;
17598;SDS011;8918;52.092;5.232;2022-08-21T15:27:26;5.88;;;2.25;;
17598;SDS011;8918;52.092;5.232;2022-08-21T15:29:52;6.50;;;2.33;;
17598;SDS011;8918;52.092;5.232;2022-08-21T15:34:47;6.10;;;2.17;;
17598;SDS011;8918;52.092;5.232;2022-08-21T15:37:15;4.10;;;2.05;;
17598;SDS011;8918;52.092;5.232;2022-08-21T15:39:41;4.28;;;2.20;;
17598;SDS011;8918;52.092;5.232;2022-08-21T15:42:07;8.60;;;2.28;;
17598;SDS011;8918;52.092;5.232;2022-08-21T15:44:34;5.28;;;2.17;;
17598;SDS011;8918;52.092;5.232;2022-08-21T15:46:59;4.97;;;2.13;;
17598;SDS011;8918;52.092;5.232;2022-08-21T15:49:25;6.07;;;2.40;;
17598;SDS011;8918;52.092;5.232;2022-08-21T15:51:50;5.60;;;2.30;;
17598;SDS011;8918;52.092;5.232;2022-08-21T15:54:16;7.72;;;2.45;;
17598;SDS011;8918;52.092;5.232;2022-08-21T15:56:43;7.10;;;2.08;;
17598;SDS011;8918;52.092;5.232;2022-08-21T15:59:13;4.63;;;2.20;;
17598;SDS011;8918;52.092;5.232;2022-08-21T16:01:42;5.25;;;2.10;;
17598;SDS011;8918;52.092;5.232;2022-08-21T16:04:08;6.95;;;2.15;;
17598;SDS011;8918;52.092;5.232;2022-08-21T16:06:35;5.90;;;2.10;;
17598;SDS011;8918;52.092;5.232;2022-08-21T16:09:00;5.68;;;2.10;;
17598;SDS011;8918;52.092;5.232;2022-08-21T16:11:26;5.10;;;2.47;;
17598;SDS011;8918;52.092;5.232;2022-08-21T16:13:53;6.68;;;2.38;;
17598;SDS011;8918;52.092;5.232;2022-08-21T16:16:19;5.75;;;2.85;;
17598;SDS011;8918;52.092;5.232;2022-08-21T16:18:46;4.90;;;2.42;;
17598;SDS011;8918;52.092;5.232;2022-08-21T16:21:13;4.85;;;2.50;;
17598;SDS011;8918;52.092;5.232;2022-08-21T16:23:39;4.63;;;2.22;;
17598;SDS011;8918;52.092;5.232;2022-08-21T16:26:05;4.55;;;2.00;;
17598;SDS011;8918;52.092;5.232;2022-08-21T16:28:33;4.70;;;2.28;;
17598;SDS011;8918;52.092;5.232;2022-08-21T16:31:01;4.63;;;2.08;;
17598;SDS011;8918;52.092;5.232;2022-08-21T16:33:29;3.80;;;1.98;;
17598;SDS011;8918;52.092;5.232;2022-08-21T16:36:04;5.53;;;2.00;;